Portada
METAR-TAF:

METAR-TAF

Aeroports :

Agra, Índia

latitud: 27-09-27N, longitud: 077-57-39E, altitud: 168 m

Observació

L'informe es va fer fa 45 minuts, a les 22:30 UTC
Vent calma
Temperatura 25°C
Humitat 100%
Pressió 1002 hPa
Visibilitat: 6000 m
Escasses núvols a una alçada de 3000 ft
Núvols disperses a una alçada de 25000 ft
boirina

METAR: VIAG 212230Z 00000KT 6000 BR FEW030 SCT250 25/25 Q1002 NOSIG

Hora: 04:45 (23:15 UTC)

Pronòstic

L'informe es va fer fa 7 hores i 45 minuts, a les 15:30 UTC
Pronòstic vàlid del 21 a les 18 UTC al 22 a les 06 UTC
Vent 2 kt amb direcció variable
Visibilitat: 6000 m
Núvols disperses a una alçada de 8000 ft
Núvols disperses a una alçada de 20000 ft
Evolucionant progressivament
l' 22 a les 00 UTC al 22 a les 01 UTC
Visibilitat: 3000 m
Núvols disperses a una alçada de 2000 ft
Núvols disperses a una alçada de 20000 ft
boirina

TAF: VIAG 211530Z 2118/2206 VRB02KT 6000 SCT080 SCT200 BECMG 2200/2201 3000 BR SCT020 SCT200

Observacions i pronòstics meteorològics de més de 4000 aeroports (METAR i TAF).

Les estacions disponibles són els punts grocs i vermells al mapa.

Posi el ratolí al punt desitjat per veure el nom de l'estació.

Feu clic per veure les observacions i els pronòstics meteorològics.

Per canviar el mapa: feu clic els botons verds amb una creu de color negre per apropar; al botó verd amb un guió per allunyar la imatge; o en les fletxes verdes per a mapes adjacents.


METAR-TAF: